QRA weather

Rand Airport
Johannesburg, Gauteng, South Africa

Public forecast

Using degrees Celsius for public forecast. Weather courtesy of forecast.io.

METAR (pilot weather report)

Report is more than 6 hours old.

Retrieved 2017/10/23 09:00 UTC (22 hours ago):

FAGM 230900Z 32012KT CAVOK 23/11 Q1027

TAF (pilot weather forecast)

Forecast is more than 12 hours old.

Closest forecast is OR Tambo International Airport, 8.0 nm (14.9 km) NE. Retrieved 2017/10/23 00:00 UTC (1 day ago):

TAF FAOR 232200Z 2400/2506 VRB03KT CAVOK BECMG 2401/2403 02007KT BECMG 2407/2409 34008KT SCT035 FEW040TCU BECMG 2410/2412 28012KT PROB30 TEMPO 2412/2415 -TSRA FEW035CB FM241600 VRB05KT 9999 SCT040 PROB30 TEMPO 2418/2421 -SHRA FEW050TCU BKN080 BECMG 2424/2502 02010KT TX27/2412Z TN16/2404Z